createdAt,value
2019-03-16T15:44:26.305Z,10.10
2019-03-16T15:46:54.056Z,10.10
2019-03-16T15:49:21.864Z,10.20
2019-03-16T15:51:49.684Z,10.10
2019-03-16T15:54:18.588Z,10.20
2019-03-16T15:56:46.339Z,10.20
2019-03-16T15:59:15.596Z,10.20
2019-03-16T16:01:43.345Z,10.20
2019-03-16T16:04:10.992Z,10.20
2019-03-16T16:06:38.742Z,10.30
2019-03-16T16:09:07.118Z,10.30
2019-03-16T16:11:34.885Z,10.20
2019-03-16T16:14:03.190Z,10.30
2019-03-16T16:16:30.945Z,10.30
2019-03-16T16:19:00.220Z,10.30
2019-03-16T16:21:28.154Z,10.30
2019-03-16T16:23:55.881Z,10.30
2019-03-16T16:26:24.745Z,10.30
2019-03-16T16:28:52.493Z,10.30
2019-03-16T16:31:20.246Z,10.30
2019-03-16T16:33:47.973Z,10.30
2019-03-16T16:36:15.728Z,10.30
2019-03-16T16:38:44.617Z,10.30
2019-03-16T16:41:12.588Z,10.30
2019-03-16T16:43:40.275Z,10.30
2019-03-16T16:46:08.238Z,10.30
2019-03-16T16:48:36.052Z,10.30
2019-03-16T16:51:03.854Z,10.30
2019-03-16T16:53:31.680Z,10.30
2019-03-16T16:55:59.412Z,10.30
2019-03-16T16:58:27.099Z,10.30
2019-03-16T17:00:54.842Z,10.30
2019-03-16T17:03:22.600Z,10.30
2019-03-16T17:05:50.402Z,10.30
2019-03-16T17:08:18.157Z,10.30
2019-03-16T17:10:45.967Z,10.30
2019-03-16T17:13:13.717Z,10.30
2019-03-16T17:15:41.608Z,10.30
2019-03-16T17:18:09.552Z,10.30
2019-03-16T17:20:37.252Z,10.30
2019-03-16T17:23:04.934Z,10.20
2019-03-16T18:27:52.681Z,10.70
2019-03-16T18:30:25.299Z,10.70
2019-03-16T18:32:56.036Z,10.60
2019-03-16T18:35:24.196Z,10.50
2019-03-16T18:37:52.240Z,10.70
2019-03-16T18:40:22.306Z,10.90
2019-03-16T18:42:50.640Z,10.90
2019-03-16T18:45:27.298Z,10.80
2019-03-16T18:48:04.890Z,10.70
2019-03-16T18:50:32.787Z,10.70
2019-03-16T18:53:01.791Z,10.60
2019-03-16T18:55:31.140Z,10.60
2019-03-16T18:58:02.154Z,10.60
2019-03-16T19:00:31.915Z,10.60
2019-03-16T19:03:07.781Z,10.60
2019-03-16T19:05:36.193Z,10.60
2019-03-16T19:08:04.085Z,10.50
2019-03-16T19:10:31.774Z,10.40
2019-03-16T19:12:59.513Z,10.40
2019-03-16T19:15:30.153Z,10.40
2019-03-16T19:18:00.727Z,10.40
2019-03-16T19:20:29.844Z,10.30
2019-03-16T19:22:57.729Z,10.30
2019-03-16T19:25:26.242Z,10.30
2019-03-16T19:27:54.450Z,10.30
2019-03-16T19:30:22.986Z,10.40
2019-03-16T19:32:56.243Z,10.40
2019-03-16T19:35:30.330Z,10.40
2019-03-16T19:37:58.557Z,10.40
2019-03-16T19:40:26.313Z,10.40
2019-03-16T19:42:54.626Z,10.40
2019-03-16T19:45:22.405Z,10.40
2019-03-16T19:47:51.430Z,10.40
2019-03-16T19:50:20.528Z,10.40
2019-03-16T19:52:48.282Z,10.40
2019-03-16T19:55:16.024Z,10.50
2019-03-16T19:57:43.860Z,10.50
2019-03-16T20:00:20.930Z,10.50
2019-03-16T20:02:51.287Z,10.50
2019-03-16T20:05:19.116Z,10.50
2019-03-16T20:10:43.528Z,10.80
2019-03-16T20:13:27.086Z,11.70
2019-03-16T20:15:59.668Z,11.80
2019-03-16T20:18:27.580Z,11.70
2019-03-16T20:21:02.414Z,11.70
2019-03-16T20:23:34.752Z,11.40
2019-03-16T20:26:08.075Z,11.40
2019-03-16T20:28:39.089Z,11.40
2019-03-16T20:31:10.703Z,11.50
2019-03-16T20:33:45.425Z,11.50
2019-03-16T20:36:18.087Z,11.60
2019-03-16T20:38:51.468Z,11.60
2019-03-16T20:41:35.941Z,11.70
2019-03-16T20:43:59.795Z,11.80
2019-03-16T20:46:27.550Z,11.80
2019-03-16T20:49:00.049Z,11.80
2019-03-16T20:51:32.560Z,12.00
2019-03-16T20:54:06.807Z,12.00
2019-03-16T20:56:36.843Z,12.00
2019-03-16T20:59:04.737Z,12.00
2019-03-16T21:01:37.059Z,12.00
2019-03-16T21:04:08.654Z,12.10
2019-03-16T21:06:42.034Z,12.20
2019-03-16T21:09:18.423Z,12.20
2019-03-16T21:11:50.652Z,12.10
2019-03-16T21:14:24.496Z,12.20
2019-03-16T21:16:58.285Z,12.20
2019-03-16T21:19:26.695Z,12.30
2019-03-16T21:22:07.329Z,12.60
2019-03-16T21:24:41.151Z,12.90
2019-03-16T21:27:16.589Z,13.00
2019-03-16T21:29:48.175Z,13.10
2019-03-16T21:32:18.839Z,13.00
2019-03-16T21:34:55.524Z,12.80
2019-03-16T21:37:24.298Z,12.80
2019-03-16T21:39:55.366Z,12.70
2019-03-16T21:42:23.264Z,12.70
2019-03-16T21:44:50.997Z,12.60
2019-03-16T21:47:18.689Z,12.60
2019-03-16T21:49:48.849Z,12.70
2019-03-16T21:52:20.046Z,12.70
2019-03-16T21:54:49.693Z,12.70
2019-03-16T21:57:17.442Z,12.70
2019-03-16T21:59:45.354Z,12.60
2019-03-16T22:02:13.101Z,12.50
2019-03-16T22:04:40.972Z,12.60
2019-03-16T22:07:08.632Z,12.50
2019-03-16T22:09:36.430Z,12.60
2019-03-16T22:12:05.081Z,12.50
2019-03-16T22:14:33.858Z,12.50
2019-03-16T22:17:02.060Z,12.50
2019-03-16T22:19:29.762Z,12.50
2019-03-16T22:21:57.416Z,12.40
2019-03-16T22:24:25.135Z,12.60
2019-03-16T22:26:52.985Z,12.70
2019-03-16T22:29:20.664Z,12.70
2019-03-16T22:31:48.397Z,12.70
2019-03-16T22:34:16.164Z,12.60
2019-03-16T22:36:44.477Z,12.50
2019-03-16T22:39:12.165Z,12.60
2019-03-16T22:41:39.897Z,12.70
2019-03-16T22:44:07.595Z,12.70
2019-03-16T22:46:35.401Z,12.70
2019-03-16T22:49:03.083Z,12.70
2019-03-16T22:51:30.913Z,12.70
2019-03-16T22:53:58.602Z,12.80
2019-03-16T22:56:26.353Z,12.70
2019-03-16T22:58:54.080Z,12.70
2019-03-16T23:01:21.833Z,12.70
2019-03-16T23:03:49.631Z,12.80
2019-03-16T23:06:17.315Z,12.70
2019-03-16T23:08:45.061Z,12.60
2019-03-16T23:11:12.915Z,12.70
2019-03-16T23:13:40.660Z,12.70
2019-03-16T23:16:08.574Z,12.60
2019-03-16T23:18:36.236Z,12.70
2019-03-16T23:21:04.265Z,12.80
2019-03-16T23:23:31.908Z,12.80
2019-03-16T23:25:59.617Z,12.80
2019-03-16T23:28:27.330Z,12.70
2019-03-16T23:30:55.076Z,12.60
2019-03-16T23:33:22.735Z,12.80
2019-03-16T23:35:51.061Z,12.90
2019-03-16T23:38:18.973Z,12.80
2019-03-16T23:40:46.806Z,12.80
2019-03-16T23:43:14.546Z,12.80
2019-03-16T23:45:42.960Z,12.90
2019-03-16T23:48:10.896Z,12.90
2019-03-16T23:50:38.764Z,12.80
2019-03-16T23:53:06.762Z,12.60
2019-03-16T23:55:34.816Z,13.00
2019-03-16T23:58:02.726Z,13.10
